M I D A S
Marine Information and Data Acquisition System
Tripno 694 of the Zeeleeuw from 2004-04-14 06:14:40 to 2004-04-14 15:42:14
Back to CruiseResearch ActivitiesStationsMapUnderway DataData graphs

EquipmentUnitsComment
TimeDGPSUTC
LatitudeDGPSDM.mWGS84
LongitudeDGPSDM.mWGS84
TemperatureSBE03/SBE38deg celciusITS90
ConductivitySBE21S/mITS90
SalinitySBE21 Practical Salinity Units
ChlorophylAChelsea fluorimeterg/lCalibrated in Aceton
Missing or incorrect values are displayed as -999
Sea surface data collected by the RV Zeeleeuw from 2004-04-14 06:14:40 to 2004-04-14 15:42:14
Time Latitude Longitude Temperature Conductivity Salinity ChlorophylA
2004-04-14 06:15:44 51°13.662 2°55.936 15.594265 0.011624 0.067738 -0.208189
2004-04-14 06:16:44 51°13.676 2°55.824 15.59931 0.011624 0.067747 -0.241899
2004-04-14 06:17:43 51°13.674 2°55.752 15.756049 0.011624 0.067754 -0.241899
2004-04-14 06:18:43 51°13.715 2°55.758 10.352383 3.527003 28.928815 18.028597
2004-04-14 06:19:44 51°13.789 2°55.677 9.985954 3.007107 26.636095 30.2314
2004-04-14 06:20:43 51°13.893 2°55.583 9.859264 2.966161 26.375765 34.040563
2004-04-14 06:21:43 51°14.013 2°55.497 9.822403 3.069327 27.5064 32.119127
2004-04-14 06:22:43 51°14.145 2°55.402 9.801001 3.060694 27.436382 21.905178
2004-04-14 06:23:44 51°14.281 2°55.235 9.817136 3.055535 27.383473 19.107298
2004-04-14 06:24:43 51°14.403 2°55.007 9.756388 3.037113 27.231225 17.792631
2004-04-14 06:25:43 51°14.593 2°54.818 9.467967 3.237275 29.415333 19.57923
2004-04-14 06:26:43 51°14.784 2°54.614 9.431357 3.337012 30.469789 13.578956
2004-04-14 06:27:43 51°14.973 2°54.41 9.31055 3.332169 30.529797 10.949623
2004-04-14 06:28:43 51°15.162 2°54.208 9.33145 3.347021 30.733984 11.286717
2004-04-14 06:29:44 51°15.363 2°54.014 9.310313 3.363241 30.890664 11.724939
2004-04-14 06:30:43 51°15.557 2°53.828 9.278309 3.366086 30.940859 10.5114
2004-04-14 06:31:44 51°15.757 2°53.636 9.2748 3.371458 31.013362 9.4327
2004-04-14 06:32:43 51°15.952 2°53.449 9.25241 3.374723 31.060901 10.54511
2004-04-14 06:33:43 51°16.159 2°53.291 9.160209 3.377147 31.126294 11.826067
2004-04-14 06:34:43 51°16.368 2°53.149 9.117816 3.378096 31.221276 16.140871
2004-04-14 06:35:43 51°16.576 2°53.006 9.115248 3.375252 31.195002 14.4554
2004-04-14 06:36:44 51°16.788 2°52.863 9.117293 3.375989 31.208307 14.152016
2004-04-14 06:37:43 51°17 2°52.754 9.110731 3.376305 31.212266 12.904768
2004-04-14 06:38:43 51°17.225 2°52.673 9.098606 3.380097 31.266266 15.668939
2004-04-14 06:39:43 51°17.457 2°52.638 9.080009 3.381572 31.287883 15.534101
2004-04-14 06:40:43 51°17.689 2°52.603 9.041894 3.385364 31.352092 14.556529
2004-04-14 06:41:44 51°17.925 2°52.565 9.013662 3.39179 31.452207 14.522819
2004-04-14 06:42:43 51°18.154 2°52.526 8.99123 3.394003 31.497517 14.253144
2004-04-14 06:43:43 51°18.388 2°52.496 8.983751 3.395583 31.523257 13.34299
2004-04-14 06:44:43 51°18.621 2°52.468 8.986657 3.394319 31.5168 11.354136
2004-04-14 06:45:43 51°18.854 2°52.439 8.969838 3.385576 31.428224 8.455127
2004-04-14 06:46:43 51°19.086 2°52.413 8.939525 3.38368 31.424695 6.837076
2004-04-14 06:47:44 51°19.326 2°52.438 8.895317 3.382522 31.452073 6.60111
2004-04-14 06:48:43 51°19.555 2°52.509 8.907195 3.389264 31.540615 7.073042
2004-04-14 06:49:43 51°19.781 2°52.638 8.902854 3.401693 31.655005 9.4327
2004-04-14 06:50:43 51°20.006 2°52.771 8.873082 3.392635 31.587867 7.949486
2004-04-14 06:51:44 51°20.237 2°52.902 8.830166 3.394847 31.627594 7.241589
2004-04-14 06:52:43 51°20.456 2°53.046 8.798975 3.388422 31.616993 5.960631
2004-04-14 06:53:43 51°20.674 2°53.207 8.845445 3.398113 31.68415 5.690956
2004-04-14 06:54:44 51°20.897 2°53.369 8.867451 3.403379 31.729051 5.825794
2004-04-14 06:55:43 51°21.111 2°53.525 8.895413 3.412333 31.805425 5.926922
2004-04-14 06:56:44 51°21.334 2°53.687 8.89775 3.41623 31.822095 6.061759
2004-04-14 06:57:43 51°21.548 2°53.847 8.933804 3.417179 31.83928 6.129178
2004-04-14 06:58:44 51°21.77 2°54.012 8.906193 3.424026 31.884927 5.859503
2004-04-14 06:59:44 51°21.989 2°54.174 8.895556 3.424342 31.898547 6.60111
2004-04-14 07:00:43 51°22.204 2°54.333 8.881529 3.423921 31.914918 6.938204
2004-04-14 07:01:43 51°22.422 2°54.494 8.88005 3.431084 31.983829 8.118033
2004-04-14 07:02:43 51°22.639 2°54.657 8.883199 3.436983 32.05305 9.601247
2004-04-14 07:03:43 51°22.859 2°54.819 8.868596 3.433823 32.027775 8.927059
2004-04-14 07:04:43 51°23.077 2°54.978 8.876614 3.438563 32.077597 9.331571
2004-04-14 07:05:43 51°23.297 2°55.135 8.852463 3.438142 32.073979 9.129315
2004-04-14 07:06:43 51°23.518 2°55.294 8.836708 3.428978 32.011066 7.814648
2004-04-14 07:07:43 51°23.738 2°55.453 8.844634 3.451627 32.238347 12.297999
2004-04-14 07:08:43 51°23.958 2°55.618 8.836994 3.471116 32.439006 19.882614
2004-04-14 07:09:43 51°24.18 2°55.785 8.837758 3.473434 32.466832 21.601794
2004-04-14 07:10:43 51°24.401 2°55.958 8.841435 3.475014 32.486255 21.062443
2004-04-14 07:11:43 51°24.613 2°56.158 8.847976 3.474803 32.475763 18.197144
2004-04-14 07:12:43 51°24.824 2°56.361 8.851843 3.47396 32.464753 15.129589
2004-04-14 07:13:43 51°25.037 2°56.562 8.849408 3.473855 32.455363 12.264289
2004-04-14 07:14:43 51°25.249 2°56.762 8.834082 3.441514 32.148455 6.702238
2004-04-14 07:15:44 51°25.464 2°56.966 8.813832 3.44499 32.185252 6.499982
2004-04-14 07:16:44 51°25.675 2°57.168 8.816555 3.44794 32.218092 6.297725
2004-04-14 07:17:43 51°25.882 2°57.365 8.762416 3.444885 32.213376 6.196597
2004-04-14 07:18:44 51°26.097 2°57.567 8.72794 3.448467 32.291904 7.578683
2004-04-14 07:19:43 51°26.302 2°57.765 8.73277 3.456052 32.3836 8.28658
2004-04-14 07:20:43 51°26.506 2°57.967 8.700767 3.469326 32.524005 8.994477
2004-04-14 07:21:44 51°26.713 2°58.17 8.618605 3.477544 32.66901 9.163024
2004-04-14 07:22:43 51°26.908 2°58.379 8.682677 3.502618 32.929216 17.556665
2004-04-14 07:23:43 51°27.099 2°58.614 8.686219 3.509782 32.985547 23.051298
2004-04-14 07:24:43 51°27.285 2°58.856 8.67478 3.50599 32.949796 19.57923
2004-04-14 07:25:43 51°27.462 2°59.118 8.66104 3.511574 33.02431 25.343537
2004-04-14 07:26:43 51°27.64 2°59.378 8.661519 3.509783 33.003281 23.388392
2004-04-14 07:27:43 51°27.819 2°59.637 8.667838 3.507254 32.979178 23.051298
2004-04-14 07:28:44 51°27.986 2°59.93 8.651751 3.504093 32.946932 22.613076
2004-04-14 07:29:43 51°28.122 3°0.247 8.666833 3.49872 32.895426 18.197144
2004-04-14 07:30:43 51°28.264 3°0.565 8.726649 3.499773 32.861871 15.095879
2004-04-14 07:31:44 51°28.421 3°0.876 8.728801 3.499246 32.835681 14.556529
2004-04-14 07:32:43 51°28.574 3°1.176 8.722104 3.492925 32.774385 12.533965
2004-04-14 07:33:43 51°28.729 3°1.48 8.714594 3.489027 32.742928 11.792358
2004-04-14 07:34:43 51°28.886 3°1.784 8.724353 3.489554 32.742306 11.859777
2004-04-14 07:35:44 51°29.045 3°2.096 8.757731 3.488816 32.719352 10.106888
2004-04-14 07:36:44 51°29.203 3°2.401 8.78206 3.489869 32.704395 9.095606
2004-04-14 07:37:43 51°29.356 3°2.704 8.754145 3.490818 32.705882 9.028187
2004-04-14 07:38:44 51°29.515 3°3.016 8.740374 3.489764 32.723123 7.915777
2004-04-14 07:39:41 51°29.663 3°3.308 8.702107 3.488606 32.730897 7.309007
2004-04-14 07:40:43 51°29.824 3°3.624 8.6777 3.485129 32.721392 6.904494
2004-04-14 07:41:44 51°29.983 3°3.935 8.619515 3.485973 32.759254 7.309007
2004-04-14 07:42:44 51°30.14 3°4.24 8.561279 3.4865 32.83384 8.792221
2004-04-14 07:43:43 51°30.293 3°4.536 8.547131 3.486817 32.871809 12.500255
2004-04-14 07:44:43 51°30.448 3°4.839 8.550632 3.489029 32.89575 16.477965
2004-04-14 07:45:43 51°30.604 3°5.142 8.540416 3.488292 32.896516 14.691366
2004-04-14 07:46:43 51°30.761 3°5.445 8.532069 3.488081 32.894309 13.882341
2004-04-14 07:47:43 51°30.916 3°5.749 8.53418 3.48766 32.893754 12.533965
2004-04-14 07:48:43 51°31.072 3°6.053 8.526504 3.487449 32.893091 12.331708
2004-04-14 07:49:44 51°31.23 3°6.364 8.533652 3.487449 32.896179 13.747503
2004-04-14 07:50:44 51°31.386 3°6.669 8.540704 3.488502 32.899495 13.747503
2004-04-14 07:51:43 51°31.54 3°6.969 8.531925 3.489029 32.903469 13.005896
2004-04-14 07:52:43 51°31.696 3°7.275 8.508029 3.488397 32.909977 11.151879
2004-04-14 07:53:43 51°31.851 3°7.58 8.518587 3.489135 32.929301 10.983332
2004-04-14 07:54:43 51°32.008 3°7.885 8.532693 3.492401 32.961994 10.309144
2004-04-14 07:55:44 51°32.167 3°8.195 8.559217 3.496404 32.974545 9.634956
2004-04-14 07:56:43 51°32.313 3°8.505 8.606626 3.500512 32.971185 8.691093
2004-04-14 07:57:44 51°32.46 3°8.831 8.609789 3.50441 32.996519 10.983332
2004-04-14 07:58:43 51°32.6 3°9.146 8.621096 3.505253 33.003018 11.219298
2004-04-14 07:59:43 51°32.741 3°9.466 8.634988 3.506201 32.99517 10.747366
2004-04-14 08:00:44 51°32.888 3°9.79 8.619611 3.506517 33.008515 10.410272
2004-04-14 08:01:44 51°33.033 3°10.11 8.618461 3.508097 33.028909 10.915913
2004-04-14 08:02:44 51°33.177 3°10.431 8.618797 3.506201 33.0083 9.904631
2004-04-14 08:03:43 51°33.319 3°10.748 8.627228 3.506096 33.006425 9.702375
2004-04-14 08:04:43 51°33.463 3°11.071 8.639395 3.506517 33.001563 9.196734
2004-04-14 08:05:43 51°33.608 3°11.393 8.62627 3.506412 32.997373 7.477554
2004-04-14 08:06:44 51°33.754 3°11.722 8.625121 3.505885 32.996498 8.353999
2004-04-14 08:07:43 51°33.895 3°12.041 8.619324 3.50736 33.018103 8.320289
2004-04-14 08:08:44 51°34.04 3°12.374 8.631396 3.514208 33.072709 13.3767
2004-04-14 08:09:44 51°34.181 3°12.702 8.640832 3.518106 33.114251 16.848768
2004-04-14 08:10:44 51°34.323 3°13.032 8.618941 3.518001 33.124773 16.781349
2004-04-14 08:11:43 51°34.464 3°13.351 8.6642 3.520213 33.13474 16.781349
2004-04-14 08:12:43 51°34.608 3°13.674 8.70603 3.522952 33.118459 18.601657
2004-04-14 08:13:44 51°34.752 3°14.001 8.708375 3.52253 33.090096 17.657794
2004-04-14 08:14:43 51°34.892 3°14.317 8.711867 3.518421 33.055696 18.298272
2004-04-14 08:15:44 51°35.036 3°14.644 8.695791 3.51642 33.035571 17.725212
2004-04-14 08:16:43 51°35.176 3°14.961 8.681816 3.512627 33.007541 16.916187
2004-04-14 08:17:43 51°35.32 3°15.283 8.684975 3.509888 32.990501 16.949896
2004-04-14 08:18:43 51°35.462 3°15.606 8.674301 3.510204 32.989177 17.489247
2004-04-14 08:19:44 51°35.607 3°15.937 8.709475 3.509782 32.984777 18.3994
2004-04-14 08:20:44 51°35.751 3°16.262 8.702872 3.511784 32.984875 17.657794
2004-04-14 08:21:43 51°35.891 3°16.58 8.695503 3.510309 32.977951 17.28699
2004-04-14 08:22:44 51°36.036 3°16.91 8.695073 3.509572 32.974104 17.354409
2004-04-14 08:23:43 51°36.177 3°17.23 8.712489 3.511046 32.980258 18.3994
2004-04-14 08:24:43 51°36.323 3°17.554 8.742048 3.513259 32.984868 17.994888
2004-04-14 08:25:43 51°36.474 3°17.88 8.667982 3.509044 32.942448 14.961042
2004-04-14 08:26:43 51°36.626 3°18.207 8.669993 3.490081 32.804445 8.118033
2004-04-14 08:27:44 51°36.78 3°18.539 8.702585 3.485972 32.735533 6.702238
2004-04-14 08:28:43 51°36.929 3°18.861 8.732005 3.483654 32.677778 5.252734
2004-04-14 08:29:43 51°37.145 3°19.048 8.778524 3.482284 32.642187 4.376289
2004-04-14 08:30:43 51°37.385 3°19.168 8.724113 3.485339 32.670949 4.645965
2004-04-14 08:31:43 51°37.626 3°19.292 8.72397 3.486288 32.705982 6.499982
2004-04-14 08:32:43 51°37.866 3°19.414 8.746543 3.483654 32.670156 6.735947
2004-04-14 08:33:43 51°38.102 3°19.532 8.6313 3.496507 32.828573 11.08446
2004-04-14 08:34:43 51°38.338 3°19.651 8.617886 3.505885 33.001904 13.983469
2004-04-14 08:35:43 51°38.562 3°19.82 8.587839 3.505674 33.015156 12.76993
2004-04-14 08:36:43 51°38.756 3°20.064 8.565499 3.505464 33.032291 14.522819
2004-04-14 08:37:43 51°38.935 3°20.339 8.571108 3.505885 33.0398 15.264426
2004-04-14 08:38:43 51°39.11 3°20.622 8.580457 3.505991 33.04555 15.534101
2004-04-14 08:39:43 51°39.286 3°20.902 8.581656 3.505359 33.039705 11.556392
2004-04-14 08:40:43 51°39.463 3°21.18 8.565211 3.506096 33.053626 11.590101
2004-04-14 08:41:43 51°39.635 3°21.467 8.570389 3.506623 33.070774 11.960905
2004-04-14 08:42:43 51°39.796 3°21.771 8.584819 3.513576 33.118789 16.309418
2004-04-14 08:43:43 51°39.96 3°22.072 8.635372 3.513892 33.113563 17.185862
2004-04-14 08:44:43 51°40.124 3°22.371 8.598336 3.516421 33.108239 12.331708
2004-04-14 08:45:43 51°40.289 3°22.67 8.588175 3.512944 33.102859 11.826067
2004-04-14 08:46:43 51°40.455 3°22.968 8.574513 3.51168 33.103583 12.062033
2004-04-14 08:47:43 51°40.621 3°23.267 8.53773 3.508836 33.085422 9.634956
2004-04-14 08:48:43 51°40.795 3°23.552 8.512972 3.504411 33.078628 11.185589
2004-04-14 08:49:43 51°40.978 3°23.824 8.499678 3.503147 33.077019 10.241725
2004-04-14 08:50:43 51°41.16 3°24.099 8.498526 3.496615 33.018589 8.118033
2004-04-14 08:51:43 51°41.342 3°24.373 8.490989 3.497774 33.033075 8.927059
2004-04-14 08:52:43 51°41.525 3°24.649 8.499918 3.498722 33.045353 10.342853
2004-04-14 08:53:43 51°41.707 3°24.924 8.511676 3.499354 33.042668 10.578819
2004-04-14 08:54:43 51°41.889 3°25.202 8.517627 3.499881 33.029572 10.073178
2004-04-14 08:55:43 51°42.073 3°25.478 8.529814 3.49967 33.028914 9.870922
2004-04-14 08:56:43 51°42.258 3°25.755 8.539552 3.499143 33.019515 11.017042
2004-04-14 08:57:43 51°42.442 3°26.033 8.550105 3.498406 33.000938 9.129315
2004-04-14 08:58:43 51°42.617 3°26.325 8.535715 3.497563 32.991331 8.421418
2004-04-14 08:59:44 51°42.793 3°26.622 8.544109 3.493454 32.942095 7.679811
2004-04-14 09:00:43 51°42.925 3°26.95 8.518251 3.491558 32.935368 6.769657
2004-04-14 09:01:43 51°43.053 3°27.29 8.522953 3.490926 32.939568 8.623674
2004-04-14 09:02:43 51°43.185 3°27.628 8.505629 3.490504 32.942112 7.679811
2004-04-14 09:03:43 51°43.318 3°27.965 8.504478 3.489662 32.939465 8.589965
2004-04-14 09:04:43 51°43.458 3°28.298 8.497278 3.487239 32.914833 7.410136
2004-04-14 09:05:43 51°43.595 3°28.631 8.500446 3.487449 32.922456 9.061896
2004-04-14 09:06:43 51°43.732 3°28.966 8.512636 3.48766 32.915385 8.792221
2004-04-14 09:07:43 51°43.869 3°29.303 8.520026 3.485658 32.888995 8.421418
2004-04-14 09:08:43 51°44.008 3°29.637 8.518059 3.483656 32.861844 7.309007
2004-04-14 09:09:43 51°44.133 3°29.985 8.516235 3.482498 32.853558 8.252871
2004-04-14 09:10:43 51°44.247 3°30.342 8.587983 3.480074 32.814302 7.073042
2004-04-14 09:11:43 51°44.364 3°30.698 8.643514 3.468906 32.597185 3.836939
2004-04-14 09:12:43 51°44.481 3°31.056 8.61827 3.461532 32.534704 3.904358
2004-04-14 09:13:43 51°44.583 3°31.427 8.595987 3.460373 32.546219 4.511127
2004-04-14 09:14:43 51°44.684 3°31.8 8.572834 3.460373 32.55613 3.904358
2004-04-14 09:15:43 51°44.771 3°32.18 8.56056 3.46248 32.599525 4.106614
2004-04-14 09:16:43 51°44.858 3°32.559 8.533892 3.464693 32.637192 4.477418
2004-04-14 09:17:43 51°44.941 3°32.937 8.519882 3.464904 32.659313 5.758375
2004-04-14 09:18:43 51°45.024 3°33.315 8.522185 3.463851 32.653651 5.926922
2004-04-14 09:19:43 51°45.107 3°33.69 8.528327 3.463429 32.646941 5.589828
2004-04-14 09:20:43 51°45.189 3°34.062 8.53298 3.462375 32.62749 5.825794
2004-04-14 09:21:43 51°45.272 3°34.434 8.536147 3.461217 32.609243 4.578546
2004-04-14 09:22:43 51°45.352 3°34.807 8.540656 3.460795 32.601775 5.792084
2004-04-14 09:23:43 51°45.426 3°35.184 8.545213 3.459742 32.589227 5.690956
2004-04-14 09:24:43 51°45.501 3°35.562 8.575711 3.456581 32.539382 4.679674
2004-04-14 09:25:43 51°45.576 3°35.938 8.581272 3.453315 32.49154 4.34258
2004-04-14 09:26:43 51°45.645 3°36.203 8.600445 3.450787 32.455244 3.297589
2004-04-14 09:27:43 51°45.688 3°36.312 8.63724 3.449206 32.393223 3.533554
2004-04-14 09:28:44 51°45.702 3°36.329 8.591626 3.449206 32.411415 3.735811
2004-04-14 09:29:43 51°45.705 3°36.38 8.566841 3.448364 32.435264 3.634683
2004-04-14 09:30:43 51°45.688 3°36.46 8.574369 3.448259 32.445566 4.34258
2004-04-14 09:31:43 51°45.651 3°36.536 8.565738 3.448153 32.442185 3.836939
2004-04-14 09:32:43 51°45.609 3°36.593 8.568471 3.4471 32.436502 4.409999
2004-04-14 09:33:43 51°45.567 3°36.634 8.563964 3.4471 32.435742 4.106614
2004-04-14 09:34:43 51°45.524 3°36.665 8.571204 3.446362 32.428799 5.219024
2004-04-14 09:35:43 51°45.483 3°36.691 8.581895 3.445835 32.414939 3.499845
2004-04-14 09:36:43 51°45.443 3°36.727 8.637 3.446573 32.391523 3.668392
2004-04-14 09:37:43 51°45.403 3°36.743 8.595125 3.446573 32.393797 2.926785
2004-04-14 09:38:42 51°45.365 3°36.732 8.577437 3.444887 32.396688 3.331298
2004-04-14 09:39:43 51°45.327 3°36.704 8.57154 3.443518 32.394533 4.679674
2004-04-14 09:40:43 51°45.291 3°36.67 8.565355 3.443097 32.390132 3.76952
2004-04-14 09:41:43 51°45.259 3°36.629 8.550153 3.442359 32.396098 3.668392
2004-04-14 09:42:43 51°45.231 3°36.58 8.54622 3.441938 32.394734 3.971777
2004-04-14 09:43:43 51°45.203 3°36.53 8.552215 3.441411 32.393788 3.162751
2004-04-14 09:44:43 51°45.173 3°36.481 8.557586 3.442043 32.392037 4.409999
2004-04-14 09:45:43 51°45.146 3°36.427 8.561135 3.442043 32.385962 3.533554
2004-04-14 09:46:43 51°45.124 3°36.366 8.552791 3.44099 32.384069 3.365007
2004-04-14 09:47:43 51°45.101 3°36.306 8.570102 3.440674 32.380767 3.095332
2004-04-14 09:48:43 51°45.076 3°36.249 8.591914 3.44278 32.377727 2.555982
2004-04-14 09:49:43 51°45.05 3°36.192 8.589613 3.443307 32.377916 3.938067
2004-04-14 09:50:44 51°45.023 3°36.135 8.588415 3.443202 32.377575 2.555982
2004-04-14 09:51:44 51°44.996 3°36.08 8.58458 3.443096 32.376475 3.095332
2004-04-14 09:52:44 51°44.967 3°36.026 8.593303 3.442991 32.375376 3.297589
2004-04-14 09:53:43 51°44.939 3°35.973 8.593543 3.44278 32.367869 3.76952
2004-04-14 09:54:43 51°44.909 3°35.922 8.582183 3.442254 32.365404 2.791947
2004-04-14 09:55:43 51°44.878 3°35.871 8.577725 3.441095 32.36468 3.533554
2004-04-14 09:56:42 51°44.848 3°35.822 8.585491 3.440357 32.353949 2.791947
2004-04-14 09:57:44 51°44.816 3°35.77 8.580122 3.439725 32.344319 2.185178
2004-04-14 09:58:44 51°44.784 3°35.72 8.578492 3.438461 32.333397 3.432426
2004-04-14 09:59:43 51°44.756 3°35.668 8.577868 3.437724 32.323428 2.65711
2004-04-14 10:00:44 51°44.732 3°35.607 8.568088 3.436565 32.319663 2.555982
2004-04-14 10:01:43 51°44.718 3°35.541 8.563533 3.434985 32.311496 3.297589
2004-04-14 10:02:44 51°44.713 3°35.466 8.570917 3.434353 32.304897 2.65711
2004-04-14 10:03:44 51°44.718 3°35.388 8.576766 3.434985 32.303924 4.241452
2004-04-14 10:04:43 51°44.733 3°35.31 8.576574 3.434669 32.297598 3.23017
2004-04-14 10:05:43 51°44.757 3°35.241 8.578492 3.434564 32.296499 3.297589
2004-04-14 10:06:43 51°44.785 3°35.19 8.573122 3.43488 32.302068 3.095332
2004-04-14 10:07:43 51°44.812 3°35.148 8.566841 3.435301 32.311009 3.331298
2004-04-14 10:08:44 51°44.867 3°35.118 8.636138 3.436881 32.307821 3.668392
2004-04-14 10:09:43 51°44.932 3°35.125 8.639347 3.441832 32.315595 2.555982
2004-04-14 10:10:43 51°44.995 3°35.157 8.636665 3.443096 32.328771 3.061623
2004-04-14 10:11:44 51°45.05 3°35.209 8.636282 3.444781 32.350879 3.027913
2004-04-14 10:12:43 51°45.092 3°35.269 8.63221 3.447204 32.367056 3.331298
2004-04-14 10:13:44 51°45.128 3°35.335 8.620569 3.447731 32.387693 3.365007
2004-04-14 10:14:43 51°45.163 3°35.397 8.623061 3.447942 32.399744 2.589691
2004-04-14 10:15:44 51°45.199 3°35.459 8.625743 3.449101 32.40425 2.6234
2004-04-14 10:16:44 51°45.234 3°35.521 8.636425 3.450049 32.408073 2.589691
2004-04-14 10:17:44 51°45.266 3°35.584 8.627755 3.451629 32.41697 2.589691
2004-04-14 10:18:44 51°45.294 3°35.651 8.611706 3.450365 32.427299 3.735811
2004-04-14 10:19:43 51°45.32 3°35.718 8.604949 3.45026 32.43455 3.297589
2004-04-14 10:20:43 51°45.346 3°35.785 8.614006 3.450892 32.436591 3.466136
2004-04-14 10:21:43 51°45.374 3°35.853 8.634509 3.452577 32.436718 3.600973
2004-04-14 10:22:43 51°45.402 3°35.92 8.646722 3.454473 32.439802 3.365007
2004-04-14 10:23:43 51°45.43 3°35.987 8.657688 3.455316 32.444796 3.870648
2004-04-14 10:24:43 51°45.458 3°36.054 8.669753 3.456791 32.445002 3.19646
2004-04-14 10:25:44 51°45.487 3°36.122 8.690383 3.457528 32.440559 3.19646
2004-04-14 10:26:44 51°45.516 3°36.191 8.709906 3.458686 32.438237 2.994204
2004-04-14 10:27:44 51°45.546 3°36.264 8.70871 3.459424 32.430775 3.634683
2004-04-14 10:28:44 51°45.577 3°36.34 8.673008 3.457844 32.438548 3.263879
2004-04-14 10:29:44 51°45.608 3°36.418 8.650314 3.455316 32.434181 3.297589
2004-04-14 10:30:44 51°45.635 3°36.498 8.628618 3.453525 32.437501 3.432426
2004-04-14 10:31:43 51°45.659 3°36.579 8.640113 3.452577 32.434441 3.297589
2004-04-14 10:32:43 51°45.681 3°36.661 8.632833 3.452577 32.426856 3.499845
2004-04-14 10:33:43 51°45.702 3°36.744 8.623827 3.45184 32.428267 4.275161
2004-04-14 10:34:43 51°45.72 3°36.828 8.622869 3.450892 32.425206 4.106614
2004-04-14 10:35:43 51°45.737 3°36.911 8.618893 3.450892 32.424447 3.904358
2004-04-14 10:36:43 51°45.75 3°36.993 8.627037 3.450259 32.417854 3.432426
2004-04-14 10:37:44 51°45.766 3°37.074 8.639539 3.450681 32.416181 3.76952
2004-04-14 10:38:44 51°45.785 3°37.154 8.636569 3.450786 32.411973 3.702101
2004-04-14 10:39:43 51°45.81 3°37.237 8.64586 3.450681 32.404811 3.263879
2004-04-14 10:40:43 51°45.834 3°37.313 8.629145 3.450575 32.40144 3.567264
2004-04-14 10:41:43 51°45.85 3°37.378 8.609262 3.448153 32.398151 3.634683
2004-04-14 10:42:44 51°45.861 3°37.435 8.599582 3.446467 32.394215 3.432426
2004-04-14 10:43:44 51°45.867 3°37.483 8.584388 3.444993 32.390959 3.466136
2004-04-14 10:44:44 51°45.872 3°37.524 8.581416 3.444255 32.384779 4.949349
2004-04-14 10:45:42 51°45.868 3°37.567 8.578779 3.44278 32.380761 3.938067
2004-04-14 10:46:42 51°45.795 3°37.579 8.585203 3.441727 32.367487 4.174033
2004-04-14 10:47:43 51°45.739 3°37.342 8.590955 3.439831 32.331786 4.409999
2004-04-14 10:48:44 51°45.684 3°37.003 8.580313 3.439515 32.33909 4.511127
2004-04-14 10:49:42 51°45.631 3°36.675 8.603943 3.442675 32.364496 4.241452
2004-04-14 10:50:43 51°45.577 3°36.33 8.612233 3.445624 32.380873 3.297589
2004-04-14 10:51:42 51°45.526 3°35.996 8.623348 3.446362 32.379472 3.533554
2004-04-14 10:52:43 51°45.474 3°35.65 8.620522 3.445414 32.37034 2.960494
2004-04-14 10:53:43 51°45.423 3°35.31 8.614772 3.444465 32.360452 4.376289
2004-04-14 10:54:43 51°45.37 3°34.97 8.621576 3.445624 32.373295 4.713383
2004-04-14 10:55:42 51°45.294 3°34.65 8.658454 3.451523 32.411324 3.634683
2004-04-14 10:56:43 51°45.216 3°34.318 8.648063 3.456053 32.447932 3.668392
2004-04-14 10:57:42 51°45.139 3°33.997 8.647968 3.456791 32.462449 4.072905
2004-04-14 10:58:43 51°45.057 3°33.666 8.656778 3.459108 32.484336 4.848221
2004-04-14 10:59:42 51°44.968 3°33.352 8.652708 3.462163 32.512393 4.376289
2004-04-14 11:00:44 51°44.879 3°33.017 8.652373 3.465429 32.546449 5.151606
2004-04-14 11:01:43 51°44.796 3°32.696 8.649452 3.467642 32.572567 4.679674
2004-04-14 11:02:44 51°44.708 3°32.362 8.658694 3.471223 32.603071 6.870785
2004-04-14 11:03:42 51°44.623 3°32.043 8.659316 3.475437 32.643213 6.499982
2004-04-14 11:04:42 51°44.508 3°31.748 8.645334 3.482812 32.723973 6.904494
2004-04-14 11:05:42 51°44.364 3°31.494 8.619468 3.490503 32.830337 8.28658
2004-04-14 11:06:42 51°44.213 3°31.254 8.597713 3.494401 32.894925 9.803503
2004-04-14 11:07:43 51°44.056 3°31.014 8.578012 3.496825 32.93569 11.590101
2004-04-14 11:08:44 51°43.902 3°30.773 8.580553 3.499669 32.975498 12.938477
2004-04-14 11:09:43 51°43.753 3°30.539 8.574944 3.502619 33.007153 13.410409
2004-04-14 11:10:42 51°43.604 3°30.304 8.572163 3.505569 33.033394 14.253144
2004-04-14 11:11:44 51°43.45 3°30.056 8.581656 3.507255 33.05569 14.725076
2004-04-14 11:12:43 51°43.302 3°29.819 8.588127 3.509151 33.066249 15.365554
2004-04-14 11:13:43 51°43.154 3°29.576 8.588127 3.509994 33.072749 16.039742
2004-04-14 11:14:43 51°43.005 3°29.332 8.583525 3.509467 33.068009 16.17458
2004-04-14 11:15:42 51°42.857 3°29.097 8.573793 3.508519 33.06428 16.444255
2004-04-14 11:16:43 51°42.695 3°28.869 8.574513 3.508625 33.064608 16.17458
2004-04-14 11:17:43 51°42.535 3°28.644 8.580457 3.508098 33.064516 17.051024
2004-04-14 11:18:42 51°42.373 3°28.438 8.576622 3.508414 33.062402 16.848768
2004-04-14 11:19:43 51°42.203 3°28.226 8.575807 3.508203 33.06407 17.86005
2004-04-14 11:20:44 51°42.035 3°28.009 8.58132 3.508098 33.058318 17.118443
2004-04-14 11:21:43 51°41.872 3°27.799 8.577006 3.506939 33.046959 16.646512
2004-04-14 11:22:44 51°41.704 3°27.58 8.584436 3.506728 33.04243 17.017315
2004-04-14 11:23:43 51°41.541 3°27.371 8.618653 3.509572 33.049754 17.691503
2004-04-14 11:24:42 51°41.379 3°27.161 8.618605 3.511153 33.05855 16.107161
2004-04-14 11:25:44 51°41.208 3°26.941 8.658071 3.512101 33.053769 14.826204
2004-04-14 11:26:41 51°41.051 3°26.742 8.674923 3.513259 33.034202 14.725076
2004-04-14 11:27:42 51°40.883 3°26.529 8.703494 3.5121 33.010522 14.4554
2004-04-14 11:28:43 51°40.716 3°26.318 8.839095 3.514417 32.933953 12.80364
2004-04-14 11:29:43 51°40.55 3°26.112 8.834989 3.513679 32.87576 11.11817
2004-04-14 11:30:43 51°40.384 3°25.907 8.874371 3.512309 32.839389 11.050751
2004-04-14 11:31:43 51°40.217 3°25.702 8.886777 3.510518 32.83146 11.050751
2004-04-14 11:32:43 51°40.049 3°25.496 8.89422 3.51136 32.809728 9.095606
2004-04-14 11:33:41 51°39.886 3°25.297 8.918927 3.51136 32.791463 9.803503
2004-04-14 11:34:44 51°39.709 3°25.079 8.984323 3.511886 32.755903 8.994477
2004-04-14 11:35:42 51°39.547 3°24.876 9.080294 3.515994 32.728748 7.241589
2004-04-14 11:36:44 51°39.372 3°24.661 9.194028 3.52379 32.735266 7.578683
2004-04-14 11:37:43 51°39.207 3°24.447 9.171468 3.540329 32.689128 7.780939
2004-04-14 11:38:43 51°39.038 3°24.224 8.843154 3.523476 32.906514 11.792358
2004-04-14 11:39:42 51°38.873 3°24.004 8.828733 3.515786 32.901489 11.826067
2004-04-14 11:40:42 51°38.707 3°23.777 8.829593 3.514206 32.892704 10.54511
2004-04-14 11:41:42 51°38.535 3°23.562 8.826966 3.513363 32.891587 10.578819
2004-04-14 11:42:42 51°38.327 3°23.486 8.940765 3.525161 32.870659 8.657383
2004-04-14 11:43:42 51°38.113 3°23.468 8.903093 3.518419 32.865472 8.792221
2004-04-14 11:44:43 51°37.894 3°23.446 8.945818 3.518419 32.841857 9.028187
2004-04-14 11:45:42 51°37.684 3°23.421 8.951967 3.516206 32.824999 7.814648
2004-04-14 11:46:42 51°37.47 3°23.417 8.953397 3.516101 32.813257 9.129315
2004-04-14 11:47:43 51°37.257 3°23.461 8.956304 3.513046 32.78386 8.084324
2004-04-14 11:48:43 51°37.047 3°23.506 8.966646 3.509779 32.716642 7.780939
2004-04-14 11:49:42 51°36.839 3°23.556 8.95945 3.508304 32.713485 7.544973
2004-04-14 11:50:44 51°36.629 3°23.66 8.965931 3.509147 32.710096 7.882067
2004-04-14 11:51:43 51°36.45 3°23.829 8.936379 3.510938 32.731674 8.118033
2004-04-14 11:52:44 51°36.268 3°24.008 8.941194 3.506303 32.729892 11.927195
2004-04-14 11:53:43 51°36.174 3°24.128 9.038372 3.48934 32.446513 8.185452
2004-04-14 11:54:43 51°36.162 3°24.205 9.141582 3.482596 32.326867 5.758375
2004-04-14 11:55:43 51°36.184 3°24.223 9.154935 3.486178 32.31536 3.735811
2004-04-14 11:56:42 51°36.209 3°24.234 9.147618 3.485967 32.316911 4.34258
2004-04-14 11:57:43 51°36.236 3°24.243 9.226358 3.485124 32.308978 4.747093
2004-04-14 11:58:43 51°36.262 3°24.25 9.344669 3.493129 32.255545 3.870648
2004-04-14 11:59:43 51°36.286 3°24.256 9.348886 3.497238 32.250386 3.668392
2004-04-14 12:00:43 51°36.312 3°24.287 9.257581 3.4965 32.267197 4.477418
2004-04-14 12:01:43 51°36.331 3°24.371 9.181206 3.491866 32.308485 6.02805
2004-04-14 12:02:43 51°36.344 3°24.472 9.175221 3.485862 32.295008 5.792084
2004-04-14 12:03:43 51°36.358 3°24.579 9.138065 3.48228 32.263355 4.477418
2004-04-14 12:04:43 51°36.375 3°24.676 9.107403 3.477539 32.24798 4.174033
2004-04-14 12:05:43 51°36.396 3°24.764 9.178593 3.477434 32.220175 3.263879
2004-04-14 12:06:42 51°36.409 3°24.843 9.052269 3.47617 32.237591 3.533554
2004-04-14 12:07:43 51°36.419 3°24.924 9.002519 3.47143 32.278781 5.926922
2004-04-14 12:08:42 51°36.429 3°25.002 9.045511 3.468796 32.247119 5.623537
2004-04-14 12:09:43 51°36.438 3°25.081 9.080722 3.469533 32.201161 3.735811
2004-04-14 12:10:42 51°36.446 3°25.157 9.041942 3.468058 32.20379 3.634683
2004-04-14 12:11:43 51°36.456 3°25.237 9.059455 3.466584 32.198989 3.668392
2004-04-14 12:12:42 51°36.464 3°25.318 9.052555 3.467216 32.196587 3.297589
2004-04-14 12:13:40 51°36.472 3°25.399 9.039466 3.46532 32.197103 3.466136
2004-04-14 12:14:42 51°36.48 3°25.485 9.048986 3.465741 32.191041 3.297589
2004-04-14 12:15:43 51°36.488 3°25.57 9.041894 3.46532 32.194872 3.331298
2004-04-14 12:16:42 51°36.494 3°25.651 9.019138 3.465109 32.200879 3.297589
2004-04-14 12:17:42 51°36.501 3°25.733 9.025375 3.464266 32.19739 3.23017
2004-04-14 12:18:43 51°36.507 3°25.815 9.013329 3.464266 32.202599 3.297589
2004-04-14 12:19:42 51°36.513 3°25.896 9.015329 3.463002 32.202948 3.331298
2004-04-14 12:20:43 51°36.518 3°25.978 9.003233 3.463634 32.203517 3.365007
2004-04-14 12:21:43 51°36.524 3°26.058 9.000328 3.462476 32.207935 3.668392
2004-04-14 12:22:44 51°36.53 3°26.141 9.009567 3.463318 32.205466 3.466136
2004-04-14 12:23:44 51°36.536 3°26.223 9.008043 3.464582 32.213305 3.263879
2004-04-14 12:24:43 51°36.536 3°26.302 8.980559 3.464056 32.217549 3.331298
2004-04-14 12:25:42 51°36.538 3°26.379 9.020281 3.463529 32.220305 3.76952
2004-04-14 12:26:44 51°36.544 3°26.46 9.068448 3.467953 32.22204 2.960494
2004-04-14 12:27:44 51°36.553 3°26.538 9.075822 3.470587 32.225396 2.522272
2004-04-14 12:28:44 51°36.567 3°26.612 9.076631 3.472272 32.229388 2.522272
2004-04-14 12:29:43 51°36.574 3°26.672 9.034754 3.472167 32.237225 2.65711
2004-04-14 12:30:43 51°36.563 3°26.717 8.993612 3.467848 32.250002 3.331298
2004-04-14 12:31:43 51°36.524 3°26.719 9.021614 3.467427 32.244905 3.297589
2004-04-14 12:32:43 51°36.479 3°26.66 8.997279 3.467848 32.241058 3.027913
2004-04-14 12:33:44 51°36.438 3°26.577 8.986657 3.465004 32.240759 3.702101
2004-04-14 12:34:44 51°36.413 3°26.48 8.995136 3.464056 32.224255 3.702101
2004-04-14 12:35:44 51°36.404 3°26.379 8.997613 3.463213 32.211081 3.567264
2004-04-14 12:36:42 51°36.398 3°26.286 9.001471 3.461738 32.198085 3.870648
2004-04-14 12:37:43 51°36.388 3°26.192 9.005233 3.462054 32.193159 3.938067
2004-04-14 12:38:42 51°36.376 3°26.101 9.006757 3.462159 32.192758 3.904358
2004-04-14 12:39:43 51°36.365 3°26.008 8.999518 3.461633 32.188065 4.005486
2004-04-14 12:40:43 51°36.354 3°25.915 9.001804 3.460895 32.183429 4.511127
2004-04-14 12:41:43 51°36.344 3°25.822 9.004947 3.460158 32.171353 4.443708
2004-04-14 12:42:43 51°36.333 3°25.728 8.999089 3.45921 32.166028 4.578546
2004-04-14 12:43:44 51°36.322 3°25.633 8.995422 3.457946 32.15967 4.679674
2004-04-14 12:44:44 51°36.311 3°25.541 8.995708 3.457208 32.15057 4.814512
2004-04-14 12:45:43 51°36.301 3°25.451 8.994183 3.45626 32.142268 4.780802
2004-04-14 12:46:43 51°36.292 3°25.361 8.991278 3.455628 32.134999 4.780802
2004-04-14 12:47:42 51°36.283 3°25.275 8.985514 3.454469 32.129724 5.556118
2004-04-14 12:48:44 51°36.274 3°25.185 8.985752 3.453943 32.124286 5.421281
2004-04-14 12:49:42 51°36.265 3°25.1 8.991706 3.453521 32.118449 4.814512
2004-04-14 12:50:44 51°36.255 3°25.011 8.980892 3.453205 32.118158 5.522409
2004-04-14 12:51:43 51°36.246 3°24.926 8.979558 3.452573 32.115346 5.758375
2004-04-14 12:52:43 51°36.237 3°24.84 8.983513 3.452573 32.11386 5.690956
2004-04-14 12:53:42 51°36.229 3°24.755 8.98275 3.452468 32.113516 5.556118
2004-04-14 12:54:43 51°36.22 3°24.666 8.977081 3.452468 32.113516 5.589828
2004-04-14 12:55:43 51°36.21 3°24.58 8.978081 3.452046 32.113622 5.825794
2004-04-14 12:56:43 51°36.2 3°24.494 8.973126 3.452257 32.114312 5.690956
2004-04-14 12:57:43 51°36.19 3°24.407 8.97122 3.451941 32.11625 5.926922
2004-04-14 12:58:44 51°36.183 3°24.318 8.970887 3.451836 32.117392 5.758375
2004-04-14 12:59:43 51°36.181 3°24.23 8.973031 3.451836 32.119622 5.657247
2004-04-14 13:00:43 51°36.189 3°24.139 8.988658 3.452784 32.121981 5.185315
2004-04-14 13:01:44 51°36.207 3°24.049 9.00109 3.454469 32.122294 4.612255
2004-04-14 13:02:42 51°36.232 3°23.963 9.002233 3.455628 32.128313 4.578546
2004-04-14 13:03:42 51°36.266 3°23.868 8.989515 3.455417 32.129109 4.645965
2004-04-14 13:04:42 51°36.3 3°23.787 8.983036 3.453416 32.124049 4.949349
2004-04-14 13:05:43 51°36.335 3°23.718 8.986228 3.454048 32.120915 4.645965
2004-04-14 13:06:44 51°36.375 3°23.669 9.085812 3.456997 32.114976 4.34258
2004-04-14 13:07:44 51°36.401 3°23.638 9.09014 3.462685 32.119496 3.297589
2004-04-14 13:08:43 51°36.424 3°23.61 9.088666 3.462475 32.118808 3.432426
2004-04-14 13:09:42 51°36.454 3°23.583 9.069971 3.46121 32.116156 3.702101
2004-04-14 13:10:44 51°36.535 3°23.638 9.076013 3.460684 32.112212 3.971777
2004-04-14 13:11:42 51°36.498 3°23.796 9.086192 3.461421 32.108699 2.960494
2004-04-14 13:12:44 51°36.358 3°23.962 9.014186 3.458577 32.115696 3.297589
2004-04-14 13:13:44 51°36.207 3°24.122 8.984608 3.454469 32.11858 4.207742
2004-04-14 13:14:44 51°36.056 3°24.288 8.988896 3.453311 32.125191 5.353862
2004-04-14 13:15:44 51°35.913 3°24.473 8.977843 3.454259 32.128292 5.556118
2004-04-14 13:16:42 51°35.773 3°24.649 8.991135 3.452994 32.117468 6.837076
2004-04-14 13:17:44 51°35.625 3°24.839 8.986752 3.452678 32.105293 7.814648
2004-04-14 13:18:42 51°35.48 3°25.003 8.986895 3.450887 32.088292 8.623674
2004-04-14 13:19:42 51°35.325 3°25.159 8.996327 3.448781 32.06877 8.522546
2004-04-14 13:20:43 51°35.218 3°25.311 9.026613 3.448464 32.054388 7.511264
2004-04-14 13:21:44 51°35.156 3°25.328 9.062786 3.451414 32.042601 6.061759
2004-04-14 13:22:43 51°35.12 3°25.295 9.075109 3.452677 32.03714 5.219024
2004-04-14 13:23:44 51°35.094 3°25.254 9.054459 3.452783 32.036007 5.522409
2004-04-14 13:24:44 51°35.073 3°25.221 9.027232 3.449728 32.034846 6.668529
2004-04-14 13:25:43 51°35.055 3°25.197 9.03861 3.448885 32.032077 6.769657
2004-04-14 13:26:43 51°35.041 3°25.178 9.050461 3.450149 32.031053 6.499982
2004-04-14 13:27:44 51°35.029 3°25.164 9.071541 3.451729 32.028113 6.230306
2004-04-14 13:28:44 51°35.007 3°25.161 9.098463 3.453309 32.02961 5.825794
2004-04-14 13:29:44 51°34.914 3°25.04 9.057504 3.453204 32.032219 5.893212
2004-04-14 13:30:44 51°34.935 3°24.736 9.02747 3.451519 32.036291 5.724665
2004-04-14 13:31:44 51°34.976 3°24.363 9.004424 3.448886 32.046882 8.691093
2004-04-14 13:32:44 51°34.943 3°23.988 8.998184 3.448991 32.059823 8.488836
2004-04-14 13:33:42 51°34.885 3°23.628 8.974603 3.448675 32.069167 9.095606
2004-04-14 13:34:43 51°34.824 3°23.252 8.981988 3.448254 32.070751 9.567537
2004-04-14 13:35:44 51°34.764 3°22.872 9.00671 3.449518 32.071931 11.11817
2004-04-14 13:36:44 51°34.704 3°22.496 9.048129 3.452362 32.071623 10.646238
2004-04-14 13:37:44 51°34.644 3°22.127 9.123425 3.457629 32.076303 10.983332
2004-04-14 13:38:43 51°34.591 3°21.756 9.13374 3.466688 32.102999 10.814785
2004-04-14 13:39:44 51°34.53 3°21.376 9.131696 3.466899 32.128083 12.163161
2004-04-14 13:40:44 51°34.47 3°21.001 9.140774 3.471113 32.18775 14.219435
2004-04-14 13:41:44 51°34.407 3°20.626 9.170328 3.477434 32.226109 12.297999
2004-04-14 13:42:44 51°34.305 3°20.28 9.213495 3.483228 32.313265 12.23058
2004-04-14 13:43:43 51°34.192 3°19.949 9.107213 3.491656 32.351652 8.084324
2004-04-14 13:44:43 51°34.081 3°19.609 9.100793 3.483123 32.327079 8.084324
2004-04-14 13:45:43 51°33.972 3°19.266 9.105168 3.484914 32.327651 6.162888
2004-04-14 13:46:43 51°33.864 3°18.927 9.058884 3.481754 32.330854 7.814648
2004-04-14 13:47:43 51°33.758 3°18.588 9.072445 3.482913 32.352506 8.85964
2004-04-14 13:48:43 51°33.652 3°18.249 9.080199 3.486495 32.381985 8.927059
2004-04-14 13:49:43 51°33.547 3°17.91 9.048652 3.485231 32.386879 9.095606
2004-04-14 13:50:43 51°33.443 3°17.57 9.100175 3.483861 32.364528 9.163024
2004-04-14 13:51:44 51°33.338 3°17.223 9.140869 3.489339 32.363543 8.927059
2004-04-14 13:52:43 51°33.236 3°16.887 9.126182 3.492288 32.381996 8.994477
2004-04-14 13:53:43 51°33.132 3°16.547 9.09366 3.491867 32.406758 9.870922
2004-04-14 13:54:43 51°33.027 3°16.204 9.076346 3.492394 32.431622 10.241725
2004-04-14 13:55:43 51°32.921 3°15.862 9.06369 3.493448 32.455213 10.882204
2004-04-14 13:56:43 51°32.816 3°15.519 9.052983 3.495239 32.483437 11.792358
2004-04-14 13:57:43 51°32.71 3°15.177 9.061168 3.497346 32.512692 12.365418
2004-04-14 13:58:43 51°32.603 3°14.835 9.064642 3.502614 32.558822 13.107024
2004-04-14 13:59:43 51°32.492 3°14.499 9.043227 3.50746 32.614136 13.612665
2004-04-14 14:00:43 51°32.377 3°14.163 9.001756 3.506723 32.644202 13.477828
2004-04-14 14:01:43 51°32.263 3°13.827 8.997041 3.50567 32.651423 12.601383
2004-04-14 14:02:43 51°32.148 3°13.494 9.007186 3.50862 32.6691 11.522683
2004-04-14 14:03:43 51°32.032 3°13.161 9.003804 3.511043 32.687364 10.612529
2004-04-14 14:04:43 51°31.916 3°12.827 9.018995 3.511359 32.695923 9.97205
2004-04-14 14:05:43 51°31.799 3°12.495 9.010615 3.512834 32.705889 9.264153
2004-04-14 14:06:43 51°31.675 3°12.17 9.032421 3.514203 32.714006 8.522546
2004-04-14 14:07:43 51°31.55 3°11.847 9.136307 3.521999 32.726587 8.151742
2004-04-14 14:08:44 51°31.421 3°11.52 9.132314 3.52674 32.746847 7.848358
2004-04-14 14:09:43 51°31.295 3°11.204 9.712356 3.556342 32.682295 5.219024
2004-04-14 14:10:43 51°31.167 3°10.882 9.591739 3.572987 32.672559 2.016631
2004-04-14 14:11:43 51°31.038 3°10.562 9.369774 3.550126 32.698418 2.488563
2004-04-14 14:12:43 51°30.909 3°10.24 9.313536 3.541382 32.682739 2.791947
2004-04-14 14:13:43 51°30.779 3°9.918 9.406466 3.536641 32.670733 2.488563
2004-04-14 14:14:44 51°30.647 3°9.591 9.627504 3.54391 32.655656 1.746956
2004-04-14 14:15:43 51°30.52 3°9.277 9.720929 3.562873 32.64359 1.746956
2004-04-14 14:16:44 51°30.386 3°8.948 10.026473 3.575304 32.623105 1.679537
2004-04-14 14:17:43 51°30.258 3°8.631 10.112446 3.613758 32.604158 1.039059
2004-04-14 14:18:43 51°30.129 3°8.309 9.846337 3.572986 32.581961 1.51099
2004-04-14 14:19:43 51°30 3°7.988 9.727099 3.564452 32.528472 1.275024
2004-04-14 14:20:43 51°29.871 3°7.665 9.683471 3.554864 32.500928 1.5447
2004-04-14 14:21:43 51°29.742 3°7.341 9.710707 3.543276 32.464726 1.645828
2004-04-14 14:22:43 51°29.613 3°7.016 10.115723 3.55992 32.419623 1.746956
2004-04-14 14:23:43 51°29.481 3°6.689 10.194799 3.59437 32.400386 1.376153
2004-04-14 14:24:44 51°29.349 3°6.359 9.63491 3.563607 32.373137 2.050341
2004-04-14 14:25:43 51°29.221 3°6.04 9.499263 3.522837 32.326393 2.589691
2004-04-14 14:26:43 51°29.091 3°5.715 9.499121 3.52231 32.294594 2.825657
2004-04-14 14:27:44 51°28.96 3°5.384 9.691954 3.525996 32.277174 2.65711
2004-04-14 14:28:43 51°28.833 3°5.063 9.679889 3.532001 32.292863 2.353725
2004-04-14 14:29:43 51°28.704 3°4.738 9.454016 3.527472 32.303891 2.589691
2004-04-14 14:30:43 51°28.576 3°4.411 9.397993 3.509774 32.30344 3.466136
2004-04-14 14:31:43 51°28.448 3°4.083 9.260712 3.508299 32.317864 4.005486
2004-04-14 14:32:43 51°28.319 3°3.756 9.234237 3.504508 32.425765 6.331435
2004-04-14 14:33:43 51°28.186 3°3.431 9.450138 3.511145 32.468642 8.455127
2004-04-14 14:34:43 51°28.052 3°3.105 9.948227 3.548121 32.378974 5.690956
2004-04-14 14:35:43 51°27.917 3°2.781 9.900425 3.556864 32.342105 3.938067
2004-04-14 14:36:43 51°27.783 3°2.457 9.811445 3.546434 32.315924 3.432426
2004-04-14 14:37:44 51°27.65 3°2.125 9.654103 3.538744 32.307252 3.466136
2004-04-14 14:38:43 51°27.552 3°1.78 9.49742 3.524312 32.346577 4.544836
2004-04-14 14:39:43 51°27.415 3°1.457 9.394443 3.510617 32.302473 3.836939
2004-04-14 14:40:43 51°27.278 3°1.132 9.393401 3.509458 32.329722 5.353862
2004-04-14 14:41:43 51°27.138 3°0.807 9.362907 3.503875 32.322069 5.859503
2004-04-14 14:42:43 51°26.999 3°0.485 9.437508 3.507035 32.304929 6.129178
2004-04-14 14:43:44 51°26.859 3°0.157 9.37503 3.509774 32.32631 7.612392
2004-04-14 14:44:43 51°26.707 2°59.859 9.388525 3.505455 32.336041 8.960768
2004-04-14 14:45:44 51°26.548 2°59.551 9.421515 3.509774 32.33665 9.601247
2004-04-14 14:46:43 51°26.393 2°59.252 9.362196 3.509143 32.361236 10.814785
2004-04-14 14:47:43 51°26.237 2°58.947 9.317849 3.512619 32.386481 11.08446
2004-04-14 14:48:43 51°26.082 2°58.64 9.386963 3.50967 32.405175 13.039606
2004-04-14 14:49:43 51°25.911 2°58.357 9.330739 3.513252 32.43226 13.511537
2004-04-14 14:50:43 51°25.735 2°58.081 9.381565 3.524945 32.436381 12.23058
2004-04-14 14:51:43 51°25.555 2°57.813 9.38862 3.519783 32.438358 13.713794
2004-04-14 14:52:43 51°25.356 2°57.581 9.219761 3.517887 32.444147 13.983469
2004-04-14 14:53:43 51°25.159 2°57.347 9.137875 3.498188 32.430812 21.500665
2004-04-14 14:54:43 51°24.955 2°57.134 9.198492 3.499241 32.431211 22.275982
2004-04-14 14:55:43 51°24.733 2°56.978 9.168096 3.499452 32.415481 20.624221
2004-04-14 14:56:43 51°24.508 2°56.818 9.245293 3.496291 32.376267 21.028734
2004-04-14 14:57:44 51°24.28 2°56.654 9.26778 3.499662 32.370019 18.97246
2004-04-14 14:58:43 51°24.06 2°56.496 9.291492 3.499873 32.37367 19.141007
2004-04-14 14:59:43 51°23.835 2°56.334 9.454158 3.511671 32.354579 14.48911
2004-04-14 15:00:43 51°23.61 2°56.172 9.367075 3.511038 32.32079 12.466546
2004-04-14 15:01:43 51°23.385 2°56.007 9.436987 3.505138 32.263418 12.163161
2004-04-14 15:02:43 51°23.159 2°55.843 9.550524 3.50577 32.23677 9.904631
2004-04-14 15:03:43 51°22.934 2°55.676 9.720505 3.515988 32.207544 8.623674
2004-04-14 15:04:44 51°22.705 2°55.509 9.937899 3.530314 32.141187 6.499982
2004-04-14 15:05:43 51°22.484 2°55.348 9.837169 3.521464 32.044481 4.072905
2004-04-14 15:06:43 51°22.261 2°55.185 9.534985 3.504504 32.052908 5.050477
2004-04-14 15:07:44 51°22.033 2°55.018 9.812103 3.49302 31.958024 4.275161
2004-04-14 15:08:43 51°21.813 2°54.859 10.076384 3.511033 31.929017 5.589828
2004-04-14 15:09:43 51°21.586 2°54.699 9.696572 3.51019 31.868137 4.039195
2004-04-14 15:10:43 51°21.361 2°54.537 9.578476 3.486698 31.792171 3.600973
2004-04-14 15:11:43 51°21.136 2°54.373 9.654197 3.476374 31.741477 2.387435
2004-04-14 15:12:43 51°20.909 2°54.212 9.424023 3.470792 31.821807 2.994204
2004-04-14 15:13:43 51°20.683 2°54.049 9.341543 3.463736 31.90973 6.904494
2004-04-14 15:14:43 51°20.456 2°53.884 9.642597 3.465526 31.869723 10.342853
2004-04-14 15:15:43 51°20.23 2°53.717 9.874726 3.494599 31.831895 8.016905
2004-04-14 15:16:43 51°20.005 2°53.554 10.235235 3.515982 31.722062 4.848221
2004-04-14 15:17:43 51°19.782 2°53.393 9.55671 3.457727 31.561121 7.848358
2004-04-14 15:18:43 51°19.555 2°53.24 9.521851 3.437818 31.419987 6.870785
2004-04-14 15:19:43 51°19.328 2°53.087 9.943532 3.451616 31.372098 4.88193
2004-04-14 15:20:43 51°19.099 2°52.932 9.901271 3.462571 31.39348 4.106614
2004-04-14 15:21:43 51°18.867 2°52.79 9.770603 3.451932 31.366095 5.623537
2004-04-14 15:22:43 51°18.631 2°52.666 9.548588 3.43234 31.345237 8.657383
2004-04-14 15:23:43 51°18.396 2°52.545 9.383696 3.4197 31.35587 13.309281
2004-04-14 15:24:43 51°18.16 2°52.422 9.450374 3.416014 31.362684 21.635503
2004-04-14 15:25:43 51°17.923 2°52.31 9.413613 3.419805 31.330526 22.073725
2004-04-14 15:26:43 51°17.681 2°52.238 9.41896 3.414223 31.343729 23.624358
2004-04-14 15:27:44 51°17.436 2°52.236 9.439116 3.416962 31.35588 24.028871
2004-04-14 15:28:43 51°17.202 2°52.299 9.459644 3.422966 31.387661 22.91646
2004-04-14 15:29:43 51°16.969 2°52.386 9.499689 3.426337 31.401207 22.478238
2004-04-14 15:30:43 51°16.741 2°52.497 9.494064 3.429391 31.412959 24.06258
2004-04-14 15:31:43 51°16.518 2°52.633 9.404005 3.430761 31.478459 26.422238
2004-04-14 15:32:43 51°16.311 2°52.813 9.491795 3.434659 31.529645 27.163845
2004-04-14 15:33:43 51°16.111 2°52.994 9.523647 3.434974 31.453963 23.759195
2004-04-14 15:34:43 51°15.913 2°53.174 9.865609 3.433602 31.233422 12.76993
2004-04-14 15:35:43 51°15.717 2°53.361 9.840977 3.438868 31.214719 12.129452
2004-04-14 15:36:43 51°15.522 2°53.55 9.854893 3.428545 31.152158 14.994751
2004-04-14 15:37:43 51°15.332 2°53.75 9.827529 3.428123 31.067358 14.253144
2004-04-14 15:38:43 51°15.144 2°53.948 9.652783 3.404002 30.980334 17.354409
2004-04-14 15:39:43 51°14.963 2°54.157 9.644672 3.38894 30.892599 20.792768
2004-04-14 15:40:43 51°14.782 2°54.37 9.68908 3.390414 30.871131 19.781486
2004-04-14 15:41:44 51°14.606 2°54.606 9.752292 3.39252 30.858883 21.096153